createdAt,value
2018-02-16T00:01:03.895Z,50.20
2018-02-16T00:03:31.446Z,50.10
2018-02-16T00:05:58.975Z,50.00
2018-02-16T00:08:26.547Z,49.80
2018-02-16T00:10:54.095Z,49.90
2018-02-16T00:13:21.677Z,49.80
2018-02-16T00:15:49.326Z,49.90
2018-02-16T00:18:16.894Z,50.00
2018-02-16T00:20:46.035Z,50.10
2018-02-16T00:23:13.595Z,50.30
2018-02-16T00:25:41.900Z,50.20
2018-02-16T00:28:09.518Z,50.20
2018-02-16T00:30:37.094Z,50.30
2018-02-16T00:33:05.400Z,50.50
2018-02-16T00:35:32.968Z,50.40
2018-02-16T00:38:00.576Z,50.50
2018-02-16T00:40:28.211Z,50.60
2018-02-16T00:42:55.783Z,50.60
2018-02-16T00:45:24.122Z,50.40
2018-02-16T00:47:52.610Z,50.40
2018-02-16T00:50:20.191Z,50.20
2018-02-16T00:52:47.764Z,50.20
2018-02-16T00:55:15.320Z,50.20
2018-02-16T00:57:42.863Z,50.40
2018-02-16T01:00:10.484Z,50.00
2018-02-16T01:02:38.046Z,50.10
2018-02-16T01:05:06.386Z,50.30
2018-02-16T01:07:34.890Z,50.30
2018-02-16T01:10:02.483Z,50.20
2018-02-16T01:12:30.020Z,50.20
2018-02-16T01:14:57.582Z,50.60
2018-02-16T01:17:25.137Z,50.60
2018-02-16T01:19:53.452Z,50.60
2018-02-16T01:22:21.000Z,50.60
2018-02-16T01:24:49.293Z,50.50
2018-02-16T01:27:17.525Z,50.50
2018-02-16T01:29:45.074Z,50.60
2018-02-16T01:32:14.238Z,50.70
2018-02-16T01:34:42.402Z,50.70
2018-02-16T01:37:09.946Z,50.70
2018-02-16T01:39:37.525Z,50.40
2018-02-16T01:42:05.079Z,50.40
2018-02-16T01:44:32.652Z,50.30
2018-02-16T01:47:00.234Z,50.40
2018-02-16T01:49:29.382Z,50.90
2018-02-16T01:51:56.982Z,50.30
2018-02-16T01:54:24.522Z,50.30
2018-02-16T01:56:52.850Z,50.40
2018-02-16T01:59:21.254Z,50.60
2018-02-16T02:01:48.825Z,50.60
2018-02-16T02:04:16.963Z,50.60
2018-02-16T02:06:44.506Z,50.60
2018-02-16T02:09:12.826Z,50.60
2018-02-16T02:11:40.371Z,50.60
2018-02-16T02:14:08.013Z,50.60
2018-02-16T02:16:35.527Z,50.40
2018-02-16T02:19:03.094Z,50.50
2018-02-16T02:21:30.760Z,50.40
2018-02-16T02:23:58.282Z,50.40
2018-02-16T02:26:25.891Z,50.30
2018-02-16T02:28:53.491Z,50.40
2018-02-16T02:31:21.037Z,50.50
2018-02-16T02:33:48.656Z,50.70
2018-02-16T02:36:16.193Z,50.80
2018-02-16T02:38:43.711Z,50.90
2018-02-16T02:41:12.027Z,51.00
2018-02-16T02:43:39.544Z,51.00
2018-02-16T02:46:07.200Z,51.00
2018-02-16T02:48:35.503Z,51.00
2018-02-16T02:51:03.066Z,51.00
2018-02-16T02:53:30.596Z,51.00
2018-02-16T02:55:58.123Z,51.10
2018-02-16T02:58:26.037Z,51.30
2018-02-16T03:00:54.333Z,51.30
2018-02-16T03:03:21.890Z,51.30
2018-02-16T03:05:49.456Z,51.10
2018-02-16T03:08:17.143Z,51.10
2018-02-16T03:10:44.712Z,51.20
2018-02-16T03:13:12.274Z,51.00
2018-02-16T03:15:40.431Z,51.10
2018-02-16T03:18:07.981Z,51.20
2018-02-16T03:20:35.536Z,51.30
2018-02-16T03:23:03.140Z,51.20
2018-02-16T03:25:30.670Z,51.20
2018-02-16T03:27:58.247Z,51.30
2018-02-16T03:30:25.961Z,51.20
2018-02-16T03:32:53.486Z,51.10
2018-02-16T03:35:21.989Z,50.60
2018-02-16T03:37:49.571Z,51.50
2018-02-16T03:40:17.932Z,51.40
2018-02-16T03:42:46.271Z,51.60
2018-02-16T03:45:14.649Z,51.50
2018-02-16T03:47:42.169Z,51.70
2018-02-16T03:50:09.808Z,51.80
2018-02-16T03:52:37.554Z,51.70
2018-02-16T03:55:05.785Z,51.60
2018-02-16T03:57:33.660Z,51.80
2018-02-16T04:00:01.199Z,51.70
2018-02-16T04:02:28.747Z,51.80
2018-02-16T04:04:57.090Z,52.00
2018-02-16T04:07:24.689Z,52.00
2018-02-16T04:09:52.207Z,52.10
2018-02-16T04:12:19.835Z,52.10
2018-02-16T04:14:47.464Z,52.10
2018-02-16T04:17:15.046Z,52.10
2018-02-16T04:19:42.583Z,52.10
2018-02-16T04:22:10.150Z,52.30
2018-02-16T04:24:38.430Z,52.70
2018-02-16T04:27:06.790Z,52.90
2018-02-16T04:29:34.378Z,52.90
2018-02-16T04:32:01.928Z,53.10
2018-02-16T04:34:29.512Z,53.20
2018-02-16T04:36:57.032Z,53.30
2018-02-16T04:39:24.760Z,53.60
2018-02-16T04:41:52.290Z,53.80
2018-02-16T04:44:19.827Z,53.90
2018-02-16T04:46:47.426Z,54.10
2018-02-16T04:49:14.950Z,54.10
2018-02-16T04:51:43.243Z,54.60
2018-02-16T04:54:10.790Z,54.60
2018-02-16T04:56:38.367Z,54.80
2018-02-16T04:59:05.924Z,55.00
2018-02-16T05:01:33.463Z,55.20
2018-02-16T05:04:01.064Z,55.40
2018-02-16T05:06:28.672Z,55.60
2018-02-16T05:08:56.230Z,55.70
2018-02-16T05:11:24.554Z,56.10
2018-02-16T05:13:52.099Z,56.10
2018-02-16T05:16:19.677Z,56.30
2018-02-16T05:18:47.218Z,56.30
2018-02-16T05:21:14.788Z,56.50
2018-02-16T05:23:42.375Z,56.80
2018-02-16T05:26:09.912Z,57.00
2018-02-16T05:28:37.461Z,57.10
2018-02-16T05:31:05.048Z,57.40
2018-02-16T05:33:32.594Z,57.20
2018-02-16T05:36:00.128Z,57.20
2018-02-16T05:38:27.721Z,57.40
2018-02-16T05:40:55.316Z,57.50
2018-02-16T05:43:22.871Z,57.70
2018-02-16T05:45:50.446Z,57.80
2018-02-16T05:48:18.764Z,58.10
2018-02-16T05:50:46.323Z,58.10
2018-02-16T05:53:14.140Z,58.10
2018-02-16T05:55:42.574Z,58.40
2018-02-16T05:58:10.171Z,58.70
2018-02-16T06:00:37.704Z,58.90
2018-02-16T06:03:05.259Z,58.80
2018-02-16T06:05:33.719Z,58.90
2018-02-16T06:08:01.265Z,58.90
2018-02-16T06:10:29.547Z,58.60
2018-02-16T06:12:57.453Z,58.70
2018-02-16T06:15:24.974Z,58.90
2018-02-16T06:17:52.546Z,59.00
2018-02-16T06:20:20.097Z,58.90
2018-02-16T06:22:47.647Z,59.00
2018-02-16T06:25:16.026Z,59.60
2018-02-16T06:27:44.317Z,59.90
2018-02-16T06:30:11.864Z,59.90
2018-02-16T06:32:39.427Z,60.20
2018-02-16T06:35:07.230Z,59.80
2018-02-16T06:37:35.631Z,59.80
2018-02-16T06:40:03.259Z,60.00
2018-02-16T06:42:30.890Z,60.20
2018-02-16T06:44:58.437Z,60.50
2018-02-16T06:47:25.988Z,61.50
2018-02-16T06:49:53.541Z,61.20
2018-02-16T06:52:21.113Z,61.30
2018-02-16T06:54:49.414Z,60.90
2018-02-16T07:10:12.302Z,61.30
2018-02-16T07:12:39.840Z,63.20
2018-02-16T07:15:08.045Z,62.60
2018-02-16T07:17:35.796Z,62.80
2018-02-16T07:20:03.721Z,62.80
2018-02-16T07:22:31.274Z,62.30
2018-02-16T07:24:58.874Z,61.80
2018-02-16T07:27:26.404Z,61.90
2018-02-16T07:29:53.997Z,62.90
2018-02-16T07:32:21.588Z,62.20
2018-02-16T07:34:49.164Z,62.20
2018-02-16T07:37:16.681Z,62.00
2018-02-16T07:39:44.242Z,61.30
2018-02-16T07:42:12.713Z,62.30
2018-02-16T07:44:40.460Z,62.50
2018-02-16T07:47:08.495Z,62.70
2018-02-16T07:49:36.825Z,62.50
2018-02-16T07:52:05.054Z,62.50
2018-02-16T07:54:33.402Z,62.30
2018-02-16T07:57:01.019Z,62.30
2018-02-16T07:59:28.676Z,62.10
2018-02-16T08:01:58.126Z,62.20
2018-02-16T08:04:26.623Z,62.20
2018-02-16T08:06:54.188Z,61.90
2018-02-16T08:09:22.270Z,62.10
2018-02-16T08:11:50.592Z,62.80
2018-02-16T08:14:18.144Z,62.70
2018-02-16T08:16:45.712Z,62.80
2018-02-16T08:19:13.258Z,63.00
2018-02-16T08:21:41.449Z,63.10
2018-02-16T08:24:09.010Z,63.00
2018-02-16T08:26:36.550Z,62.70
2018-02-16T08:29:04.091Z,62.70
2018-02-16T08:31:32.454Z,64.10
2018-02-16T08:34:01.402Z,64.00
2018-02-16T08:36:28.947Z,64.70
2018-02-16T08:38:57.914Z,66.10
2018-02-16T08:41:26.305Z,66.20
2018-02-16T08:43:54.691Z,66.00
2018-02-16T08:46:22.724Z,66.00
2018-02-16T08:48:51.182Z,65.80
2018-02-16T08:51:18.723Z,65.40
2018-02-16T08:53:46.372Z,65.30
2018-02-16T08:56:13.900Z,66.00
2018-02-16T08:58:42.449Z,65.80
2018-02-16T09:01:10.641Z,64.90
2018-02-16T09:03:40.692Z,64.70
2018-02-16T09:06:08.269Z,64.30
2018-02-16T09:08:37.140Z,63.70
2018-02-16T09:11:05.467Z,63.00
2018-02-16T09:13:33.035Z,63.00
2018-02-16T09:16:01.106Z,62.40
2018-02-16T09:18:28.661Z,62.90
2018-02-16T09:20:56.270Z,63.00
2018-02-16T09:23:24.613Z,62.90
2018-02-16T09:25:52.203Z,62.90
2018-02-16T09:28:19.764Z,63.50
2018-02-16T09:30:47.404Z,63.70
2018-02-16T09:33:15.012Z,62.90
2018-02-16T09:35:43.589Z,63.30
2018-02-16T09:38:13.112Z,63.50
2018-02-16T09:40:40.672Z,63.50
2018-02-16T09:43:08.322Z,63.40
2018-02-16T09:45:35.874Z,63.70
2018-02-16T09:48:04.297Z,63.80
2018-02-16T09:50:31.917Z,63.80
2018-02-16T09:52:59.829Z,64.60
2018-02-16T09:55:29.291Z,65.00
2018-02-16T09:57:56.848Z,64.80
2018-02-16T10:00:24.401Z,65.20
2018-02-16T10:02:52.463Z,65.30
2018-02-16T10:05:20.029Z,65.60
2018-02-16T10:07:48.500Z,66.10
2018-02-16T10:10:16.792Z,66.40
2018-02-16T10:12:45.149Z,66.20
2018-02-16T10:15:13.522Z,66.10
2018-02-16T10:17:41.084Z,66.10
2018-02-16T10:20:09.025Z,66.00
2018-02-16T10:22:36.769Z,66.20
2018-02-16T10:25:04.357Z,65.80
2018-02-16T10:27:32.368Z,66.50
2018-02-16T10:30:00.564Z,66.90
2018-02-16T10:32:28.144Z,66.80
2018-02-16T10:34:55.709Z,66.50
2018-02-16T10:37:24.483Z,66.30
2018-02-16T10:39:52.622Z,66.20
2018-02-16T10:42:21.847Z,65.90
2018-02-16T10:44:50.160Z,65.90
2018-02-16T10:47:18.177Z,66.40
2018-02-16T10:49:46.183Z,66.50
2018-02-16T10:52:14.567Z,66.60
2018-02-16T10:54:42.151Z,66.40
2018-02-16T10:57:09.711Z,66.40
2018-02-16T10:59:37.343Z,66.60
2018-02-16T11:02:12.062Z,66.90
2018-02-16T11:04:45.311Z,67.00
2018-02-16T11:07:18.594Z,67.10
2018-02-16T11:09:47.212Z,67.20
2018-02-16T11:12:15.195Z,67.30
2018-02-16T11:14:43.695Z,67.10
2018-02-16T11:17:12.283Z,67.10
2018-02-16T11:19:39.867Z,67.20
2018-02-16T11:22:07.433Z,67.40
2018-02-16T11:24:34.969Z,67.40
2018-02-16T11:27:02.520Z,67.20
2018-02-16T11:29:30.112Z,67.00
2018-02-16T11:31:57.724Z,66.80
2018-02-16T11:34:26.316Z,66.80
2018-02-16T11:36:53.925Z,66.80
2018-02-16T11:39:22.886Z,66.90
2018-02-16T11:41:50.455Z,66.60
2018-02-16T11:44:18.330Z,66.60
2018-02-16T11:46:46.513Z,66.70
2018-02-16T11:49:14.035Z,67.10
2018-02-16T11:51:42.078Z,67.20
2018-02-16T11:54:09.665Z,67.20
2018-02-16T11:56:38.756Z,67.10
2018-02-16T11:59:07.336Z,66.90
2018-02-16T12:01:35.907Z,66.70
2018-02-16T12:04:03.445Z,66.80
2018-02-16T12:06:31.761Z,66.90
2018-02-16T12:08:59.469Z,66.90
2018-02-16T12:11:27.624Z,67.10
2018-02-16T12:13:55.200Z,66.90
2018-02-16T12:16:22.761Z,66.90
2018-02-16T12:18:50.355Z,66.60
2018-02-16T12:21:17.927Z,66.70
2018-02-16T12:23:45.479Z,66.70
2018-02-16T12:26:13.082Z,67.30
2018-02-16T12:28:40.624Z,67.30
2018-02-16T12:31:08.151Z,67.40
2018-02-16T12:33:35.751Z,67.50
2018-02-16T12:36:04.058Z,68.00
2018-02-16T12:38:31.604Z,68.70
2018-02-16T12:40:59.215Z,69.10
2018-02-16T12:43:26.851Z,69.10
2018-02-16T12:45:55.157Z,69.30
2018-02-16T12:48:22.755Z,69.30
2018-02-16T12:50:50.317Z,69.40
2018-02-16T12:53:17.879Z,69.40
2018-02-16T12:55:46.423Z,69.60
2018-02-16T12:58:13.977Z,70.10
2018-02-16T13:00:43.889Z,70.20
2018-02-16T13:03:12.206Z,70.00
2018-02-16T13:05:40.185Z,69.80
2018-02-16T13:08:07.735Z,69.60
2018-02-16T13:10:36.681Z,69.60
2018-02-16T13:13:05.813Z,69.50
2018-02-16T13:15:33.353Z,69.50
2018-02-16T13:18:02.094Z,69.30
2018-02-16T13:20:30.463Z,69.00
2018-02-16T13:22:59.116Z,69.30
2018-02-16T13:25:26.689Z,69.70
2018-02-16T13:27:54.260Z,69.50
2018-02-16T13:30:22.626Z,69.80
2018-02-16T13:32:50.184Z,69.80
2018-02-16T13:35:17.931Z,69.90
2018-02-16T13:37:45.553Z,70.20
2018-02-16T13:40:14.156Z,70.20
2018-02-16T13:42:42.521Z,69.90
2018-02-16T13:45:10.856Z,69.90
2018-02-16T13:47:38.571Z,71.20
2018-02-16T13:50:06.996Z,69.90
2018-02-16T13:52:34.547Z,69.90
2018-02-16T13:55:02.125Z,70.10
2018-02-16T13:57:31.309Z,70.10
2018-02-16T14:00:01.879Z,69.80
2018-02-16T14:02:30.811Z,69.60
2018-02-16T14:04:59.741Z,68.90
2018-02-16T14:07:27.394Z,68.90
2018-02-16T14:09:54.932Z,69.10
2018-02-16T14:12:23.702Z,68.50
2018-02-16T14:14:52.042Z,68.60
2018-02-16T14:17:20.799Z,68.50
2018-02-16T14:19:48.915Z,67.90
2018-02-16T14:22:19.115Z,67.00
2018-02-16T14:24:46.698Z,67.00
2018-02-16T14:27:14.277Z,66.70
2018-02-16T14:29:42.776Z,66.40
2018-02-16T14:32:11.797Z,66.80
2018-02-16T14:34:39.892Z,66.70
2018-02-16T14:37:07.501Z,66.50
2018-02-16T14:39:35.823Z,65.70
2018-02-16T14:42:04.024Z,66.00
2018-02-16T14:44:32.332Z,65.80
2018-02-16T14:47:01.989Z,66.00
2018-02-16T14:49:30.372Z,65.30
2018-02-16T14:51:57.940Z,65.60
2018-02-16T14:54:27.073Z,65.80
2018-02-16T14:56:55.312Z,65.70
2018-02-16T14:59:22.902Z,65.70
2018-02-16T15:01:52.056Z,65.50
2018-02-16T15:04:20.462Z,65.50
2018-02-16T15:06:48.876Z,65.60
2018-02-16T15:09:16.434Z,65.70
2018-02-16T15:11:45.005Z,65.60
2018-02-16T15:14:12.563Z,65.80
2018-02-16T15:16:40.163Z,65.80
2018-02-16T15:19:07.727Z,65.00
2018-02-16T15:21:35.350Z,64.90
2018-02-16T15:24:02.928Z,65.00
2018-02-16T15:26:30.601Z,64.80
2018-02-16T15:28:58.160Z,64.70
2018-02-16T15:31:25.779Z,65.10
2018-02-16T15:33:54.078Z,65.20
2018-02-16T15:36:22.396Z,64.80
2018-02-16T15:38:49.978Z,64.80
2018-02-16T15:41:17.559Z,64.80
2018-02-16T15:43:45.113Z,65.00
2018-02-16T15:46:13.463Z,65.20
2018-02-16T15:48:41.064Z,65.00
2018-02-16T15:51:09.378Z,65.40
2018-02-16T15:53:36.943Z,65.40
2018-02-16T15:56:04.866Z,65.70
2018-02-16T15:58:33.187Z,65.90
2018-02-16T16:01:00.750Z,65.90
2018-02-16T16:03:28.382Z,66.00
2018-02-16T16:05:55.945Z,66.10
2018-02-16T16:08:23.521Z,66.10
2018-02-16T16:10:51.091Z,66.10
2018-02-16T16:13:18.727Z,66.00
2018-02-16T16:15:46.273Z,65.70
2018-02-16T16:18:13.951Z,65.50
2018-02-16T16:20:42.673Z,65.40
2018-02-16T16:23:10.197Z,65.30
2018-02-16T16:25:39.335Z,65.10
2018-02-16T16:28:07.752Z,65.30
2018-02-16T16:30:35.304Z,65.30
2018-02-16T16:33:03.675Z,65.30
2018-02-16T16:35:31.992Z,65.30
2018-02-16T16:37:59.518Z,65.30
2018-02-16T16:40:27.180Z,65.10
2018-02-16T16:42:54.767Z,65.30
2018-02-16T16:45:22.288Z,65.60
2018-02-16T16:47:49.833Z,65.80
2018-02-16T16:50:17.403Z,65.90
2018-02-16T16:52:44.966Z,66.10
2018-02-16T16:55:12.605Z,66.20
2018-02-16T16:57:40.225Z,66.60
2018-02-16T17:00:08.520Z,67.20
2018-02-16T17:15:31.975Z,69.00
2018-02-16T17:17:59.511Z,68.90
2018-02-16T17:20:27.163Z,68.90
2018-02-16T17:22:55.491Z,68.50
2018-02-16T17:25:23.044Z,68.50
2018-02-16T17:27:50.636Z,68.30
2018-02-16T17:30:18.179Z,68.10
2018-02-16T17:32:45.720Z,67.90
2018-02-16T17:35:13.597Z,67.60
2018-02-16T17:37:41.166Z,67.20
2018-02-16T17:40:09.353Z,66.40
2018-02-16T17:42:36.926Z,65.60
2018-02-16T17:45:04.643Z,65.30
2018-02-16T17:47:32.289Z,65.30
2018-02-16T17:49:59.821Z,65.00
2018-02-16T17:52:28.173Z,64.80
2018-02-16T17:54:55.735Z,64.90
2018-02-16T17:57:23.336Z,64.70
2018-02-16T17:59:50.875Z,64.60
2018-02-16T18:02:18.398Z,64.70
2018-02-16T18:04:45.988Z,64.60
2018-02-16T18:07:14.199Z,64.50
2018-02-16T18:09:41.770Z,64.30
2018-02-16T18:12:09.342Z,64.20
2018-02-16T18:14:36.905Z,64.30
2018-02-16T18:17:04.452Z,64.00
2018-02-16T18:19:32.011Z,63.80
2018-02-16T18:21:59.579Z,63.90
2018-02-16T18:24:28.118Z,63.80
2018-02-16T18:26:56.427Z,63.50
2018-02-16T18:29:23.990Z,63.50
2018-02-16T18:31:51.607Z,63.60
2018-02-16T18:34:19.900Z,63.40
2018-02-16T18:36:48.203Z,63.40
2018-02-16T18:39:15.786Z,63.40
2018-02-16T18:41:44.299Z,63.20
2018-02-16T18:44:12.605Z,63.50
2018-02-16T18:46:40.190Z,63.50
2018-02-16T18:49:07.800Z,63.50
2018-02-16T18:51:35.363Z,63.40
2018-02-16T18:54:02.936Z,64.20
2018-02-16T18:56:30.498Z,63.40
2018-02-16T18:58:58.917Z,63.80
2018-02-16T19:01:26.507Z,63.80
2018-02-16T19:03:54.038Z,63.70
2018-02-16T19:06:21.641Z,63.60
2018-02-16T19:08:49.967Z,63.70
2018-02-16T19:11:17.491Z,63.60
2018-02-16T19:13:45.806Z,63.10
2018-02-16T19:16:13.435Z,63.00
2018-02-16T19:18:41.058Z,62.80
2018-02-16T19:21:09.377Z,62.80
2018-02-16T19:23:36.980Z,62.80
2018-02-16T19:26:04.663Z,63.00
2018-02-16T19:28:32.213Z,63.10
2018-02-16T19:30:59.775Z,62.80
2018-02-16T19:33:27.352Z,62.70
2018-02-16T19:35:55.172Z,62.70
2018-02-16T19:38:22.931Z,62.90
2018-02-16T19:40:51.023Z,62.70
2018-02-16T19:43:18.607Z,62.40
2018-02-16T19:45:46.156Z,62.30
2018-02-16T19:48:14.104Z,62.30
2018-02-16T19:50:42.294Z,62.30
2018-02-16T19:53:10.406Z,62.20
2018-02-16T19:55:39.036Z,62.20
2018-02-16T19:58:06.667Z,62.30
2018-02-16T20:00:34.736Z,62.50
2018-02-16T20:03:03.065Z,62.70
2018-02-16T20:05:31.226Z,62.60
2018-02-16T20:08:00.394Z,62.70
2018-02-16T20:10:27.990Z,62.70
2018-02-16T20:12:55.976Z,62.70
2018-02-16T20:15:23.548Z,62.70
2018-02-16T20:17:51.982Z,62.70
2018-02-16T20:20:19.956Z,62.30
2018-02-16T20:22:47.576Z,62.50
2018-02-16T20:25:16.516Z,62.50
2018-02-16T20:27:44.143Z,62.50
2018-02-16T20:30:12.522Z,62.90
2018-02-16T20:32:40.127Z,62.80
2018-02-16T20:35:08.316Z,62.80
2018-02-16T20:37:37.566Z,62.70
2018-02-16T20:40:11.745Z,62.70
2018-02-16T20:42:39.663Z,62.30
2018-02-16T20:45:07.304Z,62.30
2018-02-16T20:47:35.782Z,62.20
2018-02-16T20:50:05.584Z,62.20
2018-02-16T20:52:36.327Z,62.30
2018-02-16T20:55:04.743Z,62.30
2018-02-16T20:57:32.387Z,62.30
2018-02-16T21:00:00.490Z,62.30
2018-02-16T21:02:28.036Z,62.40
2018-02-16T21:04:55.674Z,62.60
2018-02-16T21:07:25.074Z,62.60
2018-02-16T21:09:52.691Z,62.40
2018-02-16T21:12:20.290Z,62.50
2018-02-16T21:14:49.436Z,62.70
2018-02-16T21:17:17.019Z,62.70
2018-02-16T21:19:44.668Z,62.60
2018-02-16T21:22:12.286Z,62.60
2018-02-16T21:24:39.848Z,62.80
2018-02-16T21:27:07.463Z,62.70
2018-02-16T21:29:35.596Z,62.70
2018-02-16T21:32:03.139Z,63.00
2018-02-16T21:34:31.755Z,62.90
2018-02-16T21:36:59.419Z,63.00
2018-02-16T21:39:27.057Z,62.70
2018-02-16T21:41:54.635Z,62.70
2018-02-16T21:44:22.302Z,62.60
2018-02-16T21:46:49.885Z,62.70
2018-02-16T21:49:17.527Z,62.70
2018-02-16T21:51:45.184Z,62.60
2018-02-16T21:54:12.780Z,62.70
2018-02-16T21:56:40.364Z,62.70
2018-02-16T21:59:07.923Z,62.40
2018-02-16T22:01:36.344Z,62.30
2018-02-16T22:04:03.977Z,62.30
2018-02-16T22:06:31.549Z,62.30
2018-02-16T22:08:59.138Z,62.20
2018-02-16T22:11:26.696Z,62.20
2018-02-16T22:13:54.227Z,62.30
2018-02-16T22:16:21.852Z,62.20
2018-02-16T22:18:50.184Z,62.20
2018-02-16T22:21:17.849Z,62.10
2018-02-16T22:23:46.051Z,62.00
2018-02-16T22:26:14.119Z,62.10
2018-02-16T22:28:41.716Z,62.10
2018-02-16T22:31:10.740Z,62.30
2018-02-16T22:33:38.335Z,62.30
2018-02-16T22:36:05.897Z,62.20
2018-02-16T22:38:33.422Z,62.10
2018-02-16T22:41:01.021Z,62.30
2018-02-16T22:43:28.668Z,62.30
2018-02-16T22:45:56.236Z,62.30
2018-02-16T22:48:23.861Z,62.50
2018-02-16T22:50:51.458Z,62.40
2018-02-16T22:53:19.000Z,62.30
2018-02-16T22:55:46.784Z,62.20
2018-02-16T22:58:14.391Z,61.90
2018-02-16T23:00:42.100Z,61.80
2018-02-16T23:03:09.701Z,61.70
2018-02-16T23:05:38.029Z,62.10
2018-02-16T23:08:05.630Z,62.10
2018-02-16T23:10:34.257Z,62.10
2018-02-16T23:13:01.887Z,62.00
2018-02-16T23:15:30.200Z,62.10
2018-02-16T23:17:57.727Z,62.00
2018-02-16T23:20:25.300Z,61.80
2018-02-16T23:22:52.864Z,61.50
2018-02-16T23:25:20.476Z,61.40
2018-02-16T23:27:48.633Z,61.40
2018-02-16T23:30:16.170Z,61.60
2018-02-16T23:32:43.737Z,61.50
2018-02-16T23:35:11.263Z,61.50
2018-02-16T23:37:38.856Z,61.50
2018-02-16T23:40:06.485Z,61.60
2018-02-16T23:42:35.022Z,61.50
2018-02-16T23:45:02.564Z,61.60
2018-02-16T23:47:30.196Z,61.70
2018-02-16T23:49:57.739Z,61.50
2018-02-16T23:52:25.272Z,61.50
2018-02-16T23:54:52.843Z,61.70
2018-02-16T23:57:21.317Z,61.70
2018-02-16T23:59:48.908Z,61.40
